Time;durP1;ratioP1;P1;durP2;ratioP2;P2;SDS_P1;SDS_P2;PMS_P1;PMS_P2;Temp;Humidity;BMP_temperature;BMP_pressure;BME280_temperature;BME280_humidity;BME280_pressure;Samples;Min_cycle;Max_cycle;Signal;HPM_P1;HPM_P2
2021/09/13 00:00:30;;;;;;;7.80;2.17;;;;;;;15.18;85.88;101576.63;10268452;28;20044;-68
2021/09/13 00:05:27;;;;;;;4.88;1.45;;;;;;;15.25;85.90;101576.91;10270179;28;20437;-69
2021/09/13 00:10:23;;;;;;;8.43;2.08;;;;;;;15.20;85.91;101579.84;10270942;28;20075;-69
2021/09/13 00:15:20;;;;;;;6.97;1.83;;;;;;;15.27;86.10;101580.16;10271344;28;20049;-69
2021/09/13 00:20:16;;;;;;;11.57;1.92;;;;;;;15.22;86.04;101572.06;10269517;28;20102;-69
2021/09/13 00:25:13;;;;;;;6.75;2.15;;;;;;;15.15;86.54;101574.50;10269927;28;20084;-69
2021/09/13 00:30:09;;;;;;;6.13;2.00;;;;;;;15.26;86.24;101581.28;10264214;28;20087;-68
2021/09/13 00:35:07;;;;;;;5.10;2.00;;;;;;;15.20;86.78;101571.59;10272154;28;20102;-68
2021/09/13 00:40:04;;;;;;;7.65;2.20;;;;;;;15.17;87.13;101577.75;10269235;28;20637;-68
2021/09/13 00:45:02;;;;;;;6.00;2.00;;;;;;;15.23;87.03;101572.88;10264943;28;20107;-69
2021/09/13 00:49:59;;;;;;;9.35;2.25;;;;;;;15.26;86.91;101573.00;10268924;28;20041;-69
2021/09/13 00:54:55;;;;;;;9.70;3.10;;;;;;;15.15;87.46;101571.75;10267789;28;20045;-68
2021/09/13 00:59:52;;;;;;;10.27;2.83;;;;;;;15.17;87.37;101575.00;10267935;28;20037;-69
2021/09/13 01:10:00;;;;;;;7.95;3.30;;;;;;;15.12;88.18;101566.91;10181482;28;20058;-71
2021/09/13 01:14:56;;;;;;;9.90;3.60;;;;;;;15.13;88.70;101571.25;10188314;28;20048;-71
2021/09/13 01:19:53;;;;;;;11.38;4.07;;;;;;;15.17;88.88;101574.19;10186734;28;20065;-72
2021/09/13 01:24:49;;;;;;;11.77;3.40;;;;;;;15.18;89.08;101571.13;10183867;28;20073;-70
2021/09/13 01:29:46;;;;;;;12.27;3.95;;;;;;;15.25;88.68;101573.38;10188941;28;20100;-72
2021/09/13 01:34:42;;;;;;;8.60;4.00;;;;;;;15.26;89.27;101567.50;10190074;28;20136;-69
2021/09/13 01:39:39;;;;;;;12.75;4.30;;;;;;;15.28;89.33;101573.50;10183372;28;20068;-68
2021/09/13 01:44:35;;;;;;;7.28;3.80;;;;;;;15.29;89.73;101575.13;10185857;28;20567;-66
2021/09/13 01:49:32;;;;;;;8.73;3.75;;;;;;;15.30;89.60;101585.00;10189032;28;20060;-68
2021/09/13 01:54:28;;;;;;;11.88;5.07;;;;;;;15.32;89.56;101579.97;10182017;28;20093;-68
2021/09/13 01:59:25;;;;;;;13.50;5.53;;;;;;;15.28;90.46;101581.75;10186655;28;20092;-69
2021/09/13 02:04:22;;;;;;;11.93;5.22;;;;;;;15.26;91.12;101599.75;10185115;28;20578;-69
2021/09/13 02:09:18;;;;;;;12.75;5.97;;;;;;;15.25;91.75;101593.44;10179912;28;20458;-69
2021/09/13 02:14:15;;;;;;;10.82;4.95;;;;;;;15.24;91.66;101589.06;10187394;28;20042;-69
2021/09/13 02:19:11;;;;;;;7.65;5.03;;;;;;;15.31;91.61;101586.59;10187974;28;20080;-70
2021/09/13 02:24:08;;;;;;;8.90;4.45;;;;;;;15.34;91.44;101591.47;10187280;28;20069;-67
2021/09/13 02:29:04;;;;;;;8.82;4.60;;;;;;;15.33;90.51;101595.34;10184254;28;20077;-69
2021/09/13 02:34:01;;;;;;;7.53;3.22;;;;;;;15.31;90.56;101603.13;10183735;28;20096;-69
2021/09/13 02:38:57;;;;;;;15.32;4.22;;;;;;;15.34;90.54;101599.75;10187463;28;20049;-69
2021/09/13 02:43:54;;;;;;;8.20;3.65;;;;;;;15.39;90.62;101603.44;10181548;28;20108;-70
2021/09/13 02:48:50;;;;;;;7.30;3.63;;;;;;;15.43;90.37;101609.91;10191780;28;20050;-71
2021/09/13 02:53:47;;;;;;;10.60;4.90;;;;;;;15.42;90.38;101619.34;10193727;28;20069;-71
2021/09/13 02:58:43;;;;;;;12.68;4.97;;;;;;;15.43;90.21;101616.22;10190124;28;20046;-68
2021/09/13 03:03:41;;;;;;;10.35;4.70;;;;;;;15.35;89.81;101620.63;10189822;28;20046;-70
2021/09/13 03:08:38;;;;;;;11.60;5.20;;;;;;;15.33;89.93;101633.94;10194088;28;20057;-69
2021/09/13 03:13:34;;;;;;;12.57;5.72;;;;;;;15.26;90.13;101632.81;10192902;28;20096;-72
2021/09/13 03:18:31;;;;;;;9.20;4.82;;;;;;;15.25;90.76;101637.53;10191767;28;20510;-70
2021/09/13 03:23:27;;;;;;;10.82;6.95;;;;;;;15.28;90.72;101633.31;10190615;28;20123;-70
2021/09/13 03:28:24;;;;;;;13.18;6.75;;;;;;;15.31;90.82;101630.69;10186185;28;20507;-71
2021/09/13 03:33:20;;;;;;;15.95;7.57;;;;;;;15.27;90.69;101638.00;10181563;28;20108;-69
2021/09/13 03:38:17;;;;;;;17.67;7.90;;;;;;;15.31;90.96;101640.91;10189741;28;20046;-68
2021/09/13 03:43:14;;;;;;;10.18;6.53;;;;;;;15.25;90.75;101636.72;10186455;28;20050;-66
2021/09/13 03:48:10;;;;;;;11.07;6.97;;;;;;;15.29;90.97;101635.75;10171167;28;20107;-69
2021/09/13 03:53:08;;;;;;;15.25;6.97;;;;;;;15.34;90.37;101641.09;10191785;28;20058;-70
2021/09/13 03:58:04;;;;;;;10.45;6.68;;;;;;;15.30;90.65;101633.78;10188203;28;20046;-71
2021/09/13 04:03:03;;;;;;;11.40;6.18;;;;;;;15.26;90.63;101627.31;10182164;28;20046;-70
2021/09/13 04:12:59;;;;;;;11.65;6.53;;;;;;;15.23;90.61;101639.00;10189457;28;20096;-70
2021/09/13 04:17:55;;;;;;;13.55;5.85;;;;;;;15.23;90.25;101634.28;10187424;28;20118;-70
2021/09/13 04:22:52;;;;;;;11.55;5.55;;;;;;;15.11;90.44;101634.16;10180994;28;20577;-69
2021/09/13 04:27:48;;;;;;;15.93;6.20;;;;;;;15.17;90.04;101635.59;10184495;28;20132;-70
2021/09/13 04:32:45;;;;;;;13.35;5.60;;;;;;;15.10;90.32;101630.56;10176783;28;20136;-70
2021/09/13 04:37:43;;;;;;;13.50;5.97;;;;;;;15.07;90.62;101635.94;10183341;28;20104;-69
2021/09/13 04:42:41;;;;;;;15.10;6.97;;;;;;;15.07;90.44;101630.44;10183120;28;20154;-69
2021/09/13 04:47:38;;;;;;;12.82;7.10;;;;;;;15.07;90.68;101630.44;10188046;28;20045;-69
2021/09/13 04:52:35;;;;;;;14.63;7.05;;;;;;;15.04;90.99;101631.06;10183059;28;20053;-69
2021/09/13 04:57:31;;;;;;;16.33;6.72;;;;;;;15.05;91.42;101632.69;10184015;28;20072;-69
2021/09/13 05:02:28;;;;;;;12.50;5.45;;;;;;;15.05;90.89;101627.19;10187723;28;20069;-68
2021/09/13 05:07:25;;;;;;;13.77;5.20;;;;;;;15.08;90.63;101627.31;10185535;28;20054;-70
2021/09/13 05:12:21;;;;;;;16.42;5.38;;;;;;;15.12;89.93;101639.31;10186532;28;20173;-70
2021/09/13 05:17:17;;;;;;;15.13;4.78;;;;;;;15.12;89.66;101644.03;10184346;28;20045;-70
2021/09/13 05:22:14;;;;;;;10.23;4.60;;;;;;;15.15;89.95;101646.13;10182258;28;20041;-68
2021/09/13 05:27:10;;;;;;;13.38;4.95;;;;;;;15.15;89.82;101638.69;10181055;28;20050;-69
2021/09/13 05:32:07;;;;;;;11.52;4.68;;;;;;;15.17;89.65;101654.88;10187097;28;20073;-70
2021/09/13 05:37:03;;;;;;;14.30;4.28;;;;;;;15.20;89.45;101659.75;10187819;28;20084;-70
2021/09/13 05:42:00;;;;;;;13.50;4.55;;;;;;;15.22;89.10;101657.44;10187061;28;20046;-68
2021/09/13 05:46:57;;;;;;;13.57;5.60;;;;;;;15.28;88.71;101667.16;10184227;28;20069;-70
2021/09/13 05:51:53;;;;;;;12.70;4.18;;;;;;;15.26;88.22;101674.94;10176220;28;20141;-71
2021/09/13 05:56:50;;;;;;;9.40;3.47;;;;;;;15.30;88.32;101670.41;10183107;28;20069;-69
2021/09/13 06:01:47;;;;;;;11.52;3.40;;;;;;;15.30;87.56;101667.66;10185615;28;20076;-70
2021/09/13 06:06:44;;;;;;;15.38;4.15;;;;;;;15.24;87.28;101670.91;10181659;28;20693;-70
2021/09/13 06:11:41;;;;;;;15.50;3.72;;;;;;;15.29;87.11;101671.56;10181445;28;20042;-71
2021/09/13 06:16:37;;;;;;;13.13;3.42;;;;;;;15.26;86.92;101676.91;10188594;28;20096;-71
2021/09/13 06:21:34;;;;;;;15.02;4.10;;;;;;;15.29;85.97;101688.09;10188053;28;20042;-69
2021/09/13 06:26:30;;;;;;;9.25;3.70;;;;;;;15.36;86.78;101693.91;10193586;28;20121;-69
2021/09/13 06:31:27;;;;;;;11.95;3.60;;;;;;;15.48;87.10;101692.41;10196432;28;20077;-72
2021/09/13 06:36:23;;;;;;;18.75;3.55;;;;;;;15.53;86.23;101692.25;10193210;28;20049;-70
2021/09/13 06:41:20;;;;;;;15.85;2.90;;;;;;;15.59;86.20;101682.66;10194773;28;20076;-71
2021/09/13 06:46:25;;;;;;;11.27;3.45;;;;;;;15.57;85.36;101693.19;10192404;28;20078;-71
2021/09/13 06:51:22;;;;;;;12.63;2.70;;;;;;;15.56;84.28;101697.09;10193017;28;20050;-72
2021/09/13 06:56:19;;;;;;;11.38;2.80;;;;;;;15.57;84.17;101709.75;10192522;28;20045;-70
2021/09/13 07:01:16;;;;;;;11.30;2.50;;;;;;;15.52;84.46;101718.19;10186655;28;20137;-72
2021/09/13 07:06:13;;;;;;;18.55;3.50;;;;;;;15.54;84.39;101732.47;10189071;28;20092;-71
2021/09/13 07:11:09;;;;;;;14.50;2.90;;;;;;;15.53;84.14;101733.59;10192334;28;20684;-71
2021/09/13 07:16:06;;;;;;;12.77;2.70;;;;;;;15.53;84.51;101742.69;10190207;28;20073;-70
2021/09/13 07:21:02;;;;;;;12.13;2.17;;;;;;;15.60;83.02;101742.19;10191784;28;20455;-71
2021/09/13 07:25:59;;;;;;;12.60;2.53;;;;;;;15.64;83.54;101742.31;10191001;28;20496;-71
2021/09/13 07:30:55;;;;;;;9.73;2.13;;;;;;;15.66;81.84;101746.38;10191404;28;20057;-72
2021/09/13 07:35:52;;;;;;;10.07;2.50;;;;;;;15.67;81.14;101761.78;10190929;28;20038;-69
2021/09/13 07:40:49;;;;;;;8.32;1.77;;;;;;;15.70;81.51;101755.66;10192640;28;20594;-70
2021/09/13 07:45:45;;;;;;;6.75;1.67;;;;;;;15.80;80.97;101756.44;10191612;28;20507;-71
2021/09/13 07:50:42;;;;;;;6.85;1.80;;;;;;;15.86;80.00;101755.13;10191129;28;20042;-71
2021/09/13 07:55:38;;;;;;;10.07;2.00;;;;;;;15.77;78.69;101764.22;10190631;28;20042;-71
2021/09/13 08:00:35;;;;;;;10.15;1.70;;;;;;;15.71;76.65;101764.72;10182696;28;20072;-72
2021/09/13 08:05:31;;;;;;;7.57;1.65;;;;;;;15.70;77.58;101774.94;10185399;28;20050;-70
2021/09/13 08:10:28;;;;;;;11.63;1.83;;;;;;;15.65;78.30;101783.34;10190252;28;20073;-70
2021/09/13 08:15:25;;;;;;;13.20;2.13;;;;;;;15.65;78.70;101793.59;10190442;28;20073;-71
2021/09/13 08:20:21;;;;;;;9.85;2.03;;;;;;;15.56;79.17;101796.34;10190568;28;20496;-71
2021/09/13 08:25:17;;;;;;;10.82;1.98;;;;;;;15.54;80.13;101804.13;10188993;28;20053;-71
2021/09/13 08:30:14;;;;;;;11.60;1.80;;;;;;;15.52;80.62;101807.19;10189015;28;20045;-70
2021/09/13 08:35:11;;;;;;;19.35;2.13;;;;;;;15.49;78.61;101812.56;10188644;28;20100;-69
2021/09/13 08:40:08;;;;;;;12.65;1.95;;;;;;;15.51;79.31;101810.28;10189837;28;20046;-71
2021/09/13 08:45:08;;;;;;;13.93;2.13;;;;;;;15.47;78.74;101826.66;10187773;28;20049;-71
2021/09/13 08:50:23;;;;;;;11.63;2.30;;;;;;;15.48;79.13;101833.81;10188380;28;20046;-71
2021/09/13 08:55:21;;;;;;;9.77;2.05;;;;;;;15.64;79.54;101836.06;10188333;28;20450;-71
2021/09/13 09:00:19;;;;;;;12.02;1.90;;;;;;;15.78;78.35;101848.59;10185252;28;20046;-71
2021/09/13 09:05:16;;;;;;;8.52;1.63;;;;;;;15.86;77.50;101843.38;10186768;28;20116;-71
2021/09/13 09:10:17;;;;;;;12.20;1.75;;;;;;;15.93;77.30;101843.69;10187887;28;20049;-69
2021/09/13 09:15:14;;;;;;;14.35;2.33;;;;;;;15.95;75.79;101846.94;10188897;28;20058;-71
2021/09/13 09:20:11;;;;;;;11.95;1.67;;;;;;;15.96;75.76;101848.56;10188827;28;20049;-71
2021/09/13 09:25:10;;;;;;;13.43;2.10;;;;;;;16.00;75.27;101860.56;10188750;28;20100;-70
2021/09/13 09:30:11;;;;;;;15.02;1.98;;;;;;;15.97;74.34;101851.00;10188933;28;20073;-72
2021/09/13 09:35:17;;;;;;;9.02;1.42;;;;;;;15.96;74.92;101859.59;10183144;28;20550;-71
2021/09/13 09:40:28;;;;;;;9.23;1.33;;;;;;;16.03;75.20;101856.34;10186297;28;20070;-72
2021/09/13 09:45:25;;;;;;;10.50;1.52;;;;;;;16.04;75.43;101856.00;10187231;28;20133;-71
2021/09/13 09:50:29;;;;;;;8.55;1.77;;;;;;;16.20;75.79;101848.84;10184188;28;20045;-71
2021/09/13 09:55:27;;;;;;;10.40;1.70;;;;;;;16.35;75.30;101843.91;10188205;28;20077;-71
2021/09/13 10:00:27;;;;;;;9.98;1.75;;;;;;;16.47;74.88;101845.97;10194998;28;20111;-73
2021/09/13 10:05:26;;;;;;;4.40;1.23;;;;;;;16.51;74.28;101842.22;10194559;28;20108;-72
2021/09/13 10:10:29;;;;;;;11.18;1.80;;;;;;;16.53;73.61;101845.47;10191583;28;20048;-72
2021/09/13 10:15:26;;;;;;;7.45;1.35;;;;;;;16.56;74.44;101844.81;10194780;28;20585;-70
2021/09/13 10:20:28;;;;;;;10.27;1.40;;;;;;;16.50;73.74;101845.31;10196301;28;20164;-69
2021/09/13 10:25:32;;;;;;;7.57;1.85;;;;;;;16.40;73.22;101852.00;10192812;28;20042;-71
2021/09/13 10:30:30;;;;;;;6.47;1.42;;;;;;;16.22;74.06;101861.47;10196095;28;20054;-71
2021/09/13 10:35:52;;;;;;;9.90;1.77;;;;;;;16.13;75.34;101865.09;10194847;28;20100;-71
2021/09/13 10:40:49;;;;;;;8.02;1.30;;;;;;;16.22;75.16;101855.97;10185235;28;20072;-71
2021/09/13 10:45:46;;;;;;;10.90;1.50;;;;;;;16.25;74.36;101855.31;10193608;28;20145;-72
2021/09/13 10:50:45;;;;;;;9.65;1.80;;;;;;;16.36;74.07;101851.03;10193497;28;20038;-72
2021/09/13 10:55:50;;;;;;;8.20;1.48;;;;;;;16.41;74.00;101859.16;10193739;28;20058;-72
2021/09/13 11:00:48;;;;;;;10.23;1.77;;;;;;;16.37;72.36;101858.19;10193984;28;20077;-71
2021/09/13 11:05:45;;;;;;;8.95;1.90;;;;;;;16.45;72.46;101854.59;10188262;28;20130;-69
2021/09/13 11:10:44;;;;;;;7.75;1.67;;;;;;;16.67;72.72;101852.75;10191120;28;20080;-68
2021/09/13 11:15:46;;;;;;;5.03;1.00;;;;;;;16.84;72.14;101849.91;10192230;28;20050;-68
2021/09/13 11:20:43;;;;;;;5.95;1.80;;;;;;;17.00;70.52;101850.94;10192462;28;20042;-69
2021/09/13 11:25:54;;;;;;;8.00;1.50;;;;;;;17.04;69.74;101854.66;10189768;28;20054;-66
2021/09/13 11:30:51;;;;;;;6.10;1.60;;;;;;;17.01;69.07;101865.56;10191413;28;20099;-67
2021/09/13 11:35:54;;;;;;;6.90;1.80;;;;;;;16.98;68.50;101850.47;10189095;28;20046;-70
2021/09/13 11:40:50;;;;;;;10.30;1.77;;;;;;;16.93;68.62;101853.44;10193953;28;20080;-70
2021/09/13 11:45:47;;;;;;;8.57;2.08;;;;;;;16.96;69.37;101863.81;10190563;28;20511;-70
2021/09/13 11:50:45;;;;;;;5.07;1.00;;;;;;;17.14;67.78;101852.66;10192779;28;20492;-72
2021/09/13 11:55:41;;;;;;;3.95;1.23;;;;;;;17.31;67.78;101847.00;10186496;28;20477;-72
2021/09/13 12:00:39;;;;;;;4.93;0.95;;;;;;;17.43;66.24;101849.88;10192502;28;20070;-71
2021/09/13 12:05:38;;;;;;;6.25;1.40;;;;;;;17.72;66.01;101850.13;10190596;28;20058;-69
2021/09/13 12:10:36;;;;;;;5.50;0.85;;;;;;;17.64;64.54;101854.59;10189225;28;20041;-70
2021/09/13 12:15:34;;;;;;;4.28;0.80;;;;;;;17.50;64.06;101849.31;10173762;28;20128;-69
2021/09/13 12:20:33;;;;;;;5.47;1.08;;;;;;;17.27;64.36;101846.09;10185253;28;20058;-71
2021/09/13 12:25:40;;;;;;;8.60;1.10;;;;;;;17.00;65.79;101850.94;10188609;28;20648;-73
2021/09/13 12:30:44;;;;;;;6.60;1.40;;;;;;;16.96;66.69;101858.28;10188320;28;20056;-71
2021/09/13 12:35:49;;;;;;;4.32;0.95;;;;;;;16.81;66.46;101861.63;10183518;28;20054;-72
2021/09/13 12:40:51;;;;;;;6.78;1.10;;;;;;;16.72;66.21;101863.59;10198674;28;20045;-72
2021/09/13 12:45:49;;;;;;;4.30;1.23;;;;;;;16.79;67.61;101858.38;10186021;28;20064;-71
2021/09/13 12:50:53;;;;;;;4.78;1.10;;;;;;;16.80;66.97;101860.81;10185903;28;20514;-72
2021/09/13 12:55:49;;;;;;;8.43;1.48;;;;;;;16.92;67.26;101857.34;10186404;28;20053;-71
2021/09/13 13:00:46;;;;;;;9.23;2.72;;;;;;;17.02;66.97;101840.38;10185439;28;20062;-72
2021/09/13 13:05:48;;;;;;;9.23;1.35;;;;;;;17.16;66.56;101836.56;10184888;28;20045;-71
2021/09/13 13:10:45;;;;;;;6.13;1.63;;;;;;;17.42;67.60;101831.63;10184585;28;20045;-72
2021/09/13 13:15:42;;;;;;;6.47;1.05;;;;;;;17.44;66.02;101834.06;10185765;28;20054;-72
2021/09/13 13:20:51;;;;;;;5.97;1.42;;;;;;;17.33;64.81;101833.66;10186111;28;20073;-71
2021/09/13 13:25:49;;;;;;;6.72;1.13;;;;;;;17.26;66.64;101830.63;10178579;28;20034;-71
2021/09/13 13:30:46;;;;;;;5.13;1.60;;;;;;;17.21;66.08;101837.16;10184703;28;20396;-72
2021/09/13 13:35:42;;;;;;;5.63;1.23;;;;;;;17.05;65.96;101827.84;10186194;28;20046;-72
2021/09/13 13:40:39;;;;;;;4.50;1.08;;;;;;;16.99;67.77;101824.47;10187181;28;20595;-71
2021/09/13 13:45:37;;;;;;;8.05;1.15;;;;;;;16.90;66.40;101825.69;10179689;28;20050;-70
2021/09/13 13:50:34;;;;;;;4.68;0.88;;;;;;;16.91;66.05;101825.34;10184257;28;20883;-71
2021/09/13 13:55:30;;;;;;;8.70;3.13;;;;;;;16.90;66.01;101820.97;10184410;28;20768;-71
2021/09/13 14:00:27;;;;;;;4.43;1.52;;;;;;;16.92;65.86;101815.91;10183578;28;20042;-72
2021/09/13 14:05:23;;;;;;;4.85;0.80;;;;;;;17.02;64.53;101810.00;10180110;28;20077;-71
2021/09/13 14:10:20;;;;;;;8.00;1.80;;;;;;;17.20;64.58;101812.66;10187671;28;20053;-71
2021/09/13 14:15:17;;;;;;;4.25;1.00;;;;;;;17.34;63.88;101807.66;10187574;28;20487;-71
2021/09/13 14:20:13;;;;;;;4.85;1.13;;;;;;;17.55;63.99;101806.84;10184552;28;20057;-72
2021/09/13 14:25:10;;;;;;;9.02;0.95;;;;;;;17.67;63.89;101809.66;10176509;28;20089;-72
2021/09/13 14:30:07;;;;;;;5.28;0.70;;;;;;;17.66;62.91;101803.31;10185752;28;20104;-71
2021/09/13 14:35:04;;;;;;;4.25;1.48;;;;;;;17.81;62.97;101799.13;10183113;28;20450;-71
2021/09/13 14:40:01;;;;;;;6.22;0.90;;;;;;;17.78;62.17;101799.78;10184936;28;20073;-71
2021/09/13 14:44:57;;;;;;;5.15;1.10;;;;;;;17.71;61.85;101799.53;10190882;28;20073;-71
2021/09/13 14:49:54;;;;;;;4.10;1.10;;;;;;;17.65;63.20;101795.34;10191762;28;20042;-72
2021/09/13 14:54:50;;;;;;;7.43;1.85;;;;;;;17.61;63.94;101799.94;10191450;28;20463;-71
2021/09/13 14:59:47;;;;;;;5.10;0.98;;;;;;;17.48;64.13;101803.81;10190834;28;20046;-72
2021/09/13 15:04:43;;;;;;;5.15;0.88;;;;;;;17.48;64.55;101806.56;10190466;28;20065;-70
2021/09/13 15:09:39;;;;;;;6.22;1.08;;;;;;;17.30;63.78;101801.19;10183626;28;20088;-69
2021/09/13 15:14:36;;;;;;;4.88;1.40;;;;;;;17.26;63.43;101805.75;10190484;28;20042;-71
2021/09/13 15:19:32;;;;;;;4.40;0.93;;;;;;;17.18;64.20;101806.63;10187027;28;20037;-70
2021/09/13 15:24:29;;;;;;;6.50;1.38;;;;;;;17.16;63.93;101801.44;10189560;28;20088;-68
2021/09/13 15:29:26;;;;;;;4.40;0.98;;;;;;;17.17;65.16;101802.25;10189064;28;20054;-70
2021/09/13 15:34:22;;;;;;;6.03;1.20;;;;;;;17.14;64.45;101808.44;10190767;28;20042;-69
2021/09/13 15:39:19;;;;;;;6.32;1.77;;;;;;;17.08;63.67;101809.78;10190416;28;20100;-70
2021/09/13 15:44:15;;;;;;;6.03;1.55;;;;;;;17.06;62.71;101801.03;10189808;28;20096;-70
2021/09/13 15:49:12;;;;;;;4.03;1.30;;;;;;;17.04;63.78;101804.94;10188646;28;20116;-71
2021/09/13 15:54:09;;;;;;;4.38;1.13;;;;;;;16.97;64.42;101799.13;10189147;28;20542;-69
2021/09/13 15:59:06;;;;;;;6.15;1.27;;;;;;;17.04;65.18;101796.66;10187006;28;20068;-71
2021/09/13 16:04:02;;;;;;;5.78;1.30;;;;;;;17.00;65.22;101792.94;10189983;28;20100;-67
2021/09/13 16:08:59;;;;;;;5.93;1.98;;;;;;;17.05;65.46;101789.16;10189582;28;20050;-71
2021/09/13 16:13:57;;;;;;;12.50;4.20;;;;;;;17.03;64.74;101792.28;10190679;28;20073;-70
2021/09/13 16:18:53;;;;;;;5.75;1.73;;;;;;;16.90;63.94;101776.75;10187274;28;20104;-69
2021/09/13 16:23:50;;;;;;;10.48;3.55;;;;;;;16.89;64.80;101783.41;10185333;28;20069;-68
2021/09/13 16:28:46;;;;;;;7.13;2.67;;;;;;;16.92;65.74;101796.56;10183552;28;20165;-69
2021/09/13 16:33:43;;;;;;;8.07;3.08;;;;;;;16.95;64.57;101798.66;10178902;28;20535;-70
2021/09/13 16:38:41;;;;;;;7.18;1.10;;;;;;;16.97;64.46;101788.09;10185731;28;20166;-69
2021/09/13 16:43:38;;;;;;;7.13;1.08;;;;;;;16.87;65.35;101777.41;10186966;28;20495;-70
2021/09/13 16:48:34;;;;;;;5.95;1.13;;;;;;;16.88;66.28;101784.56;10186122;28;20046;-70
2021/09/13 16:53:31;;;;;;;5.72;1.75;;;;;;;16.86;66.42;101789.63;10188305;28;20046;-70
2021/09/13 16:58:27;;;;;;;3.47;1.00;;;;;;;16.83;65.97;101787.53;10185405;28;20123;-70
2021/09/13 17:03:24;;;;;;;3.78;1.30;;;;;;;16.76;65.77;101781.69;10186736;28;20077;-70
2021/09/13 17:08:21;;;;;;;6.28;2.20;;;;;;;16.70;66.35;101781.06;10183114;28;20508;-70
2021/09/13 17:13:17;;;;;;;4.45;1.33;;;;;;;16.66;67.99;101782.88;10186256;28;20735;-70
2021/09/13 17:18:14;;;;;;;4.20;1.33;;;;;;;16.55;68.82;101785.22;10188853;28;20045;-68
2021/09/13 17:23:10;;;;;;;5.75;1.50;;;;;;;16.46;67.57;101791.94;10186377;28;20471;-69
2021/09/13 17:28:07;;;;;;;5.20;1.73;;;;;;;16.41;66.81;101788.22;10185773;28;20042;-69
2021/09/13 17:33:03;;;;;;;7.75;2.13;;;;;;;16.32;68.24;101778.34;10183377;28;20065;-68
2021/09/13 17:38:03;;;;;;;11.57;3.15;;;;;;;16.19;69.75;101775.47;10188472;28;20464;-70
2021/09/13 17:43:00;;;;;;;9.70;2.92;;;;;;;16.12;70.43;101788.97;10183024;28;20054;-70
2021/09/13 17:47:56;;;;;;;10.73;3.38;;;;;;;16.02;71.03;101797.59;10179839;28;20503;-70
2021/09/13 17:52:53;;;;;;;10.48;2.92;;;;;;;15.89;71.34;101793.09;10183133;28;20610;-69
2021/09/13 17:57:49;;;;;;;6.43;1.83;;;;;;;15.81;71.79;101791.16;10172427;28;20077;-67
2021/09/13 18:02:46;;;;;;;6.57;1.55;;;;;;;15.72;72.38;101789.22;10184154;28;20042;-71
2021/09/13 18:07:43;;;;;;;6.07;1.75;;;;;;;15.62;72.90;101792.28;10183163;28;20049;-70
2021/09/13 18:12:39;;;;;;;11.52;2.10;;;;;;;15.55;73.61;101791.97;10180613;28;20038;-70
2021/09/13 18:17:35;;;;;;;11.80;2.33;;;;;;;15.47;73.71;101803.81;10190829;28;20053;-71
2021/09/13 18:22:32;;;;;;;7.32;2.45;;;;;;;15.38;74.45;101800.25;10196507;28;20061;-69
2021/09/13 18:27:28;;;;;;;6.53;1.83;;;;;;;15.28;75.08;101804.13;10193770;28;20108;-69
2021/09/13 18:32:26;;;;;;;5.75;2.17;;;;;;;15.20;75.21;101811.25;10191514;28;20042;-70
2021/09/13 18:37:22;;;;;;;7.07;2.25;;;;;;;15.11;75.69;101813.19;10190439;28;20042;-68
2021/09/13 18:42:18;;;;;;;6.43;2.60;;;;;;;15.03;76.05;101811.22;10190032;28;20129;-68
2021/09/13 18:47:15;;;;;;;7.35;2.83;;;;;;;14.97;76.74;101809.75;10192520;28;20046;-70
2021/09/13 18:52:11;;;;;;;7.68;3.22;;;;;;;14.91;77.14;101809.91;10191318;28;20128;-68
2021/09/13 18:57:08;;;;;;;7.10;2.60;;;;;;;14.85;77.54;101815.88;10190013;28;20045;-70
2021/09/13 19:02:05;;;;;;;6.05;3.17;;;;;;;14.80;78.05;101824.28;10188676;28;20100;-70
2021/09/13 19:07:02;;;;;;;9.80;3.85;;;;;;;14.71;78.25;101829.75;10191726;28;20048;-69
2021/09/13 19:11:58;;;;;;;9.00;3.85;;;;;;;14.66;78.49;101824.41;10185772;28;20070;-70
2021/09/13 19:16:55;;;;;;;9.77;3.15;;;;;;;14.61;78.86;101843.81;10190732;28;20069;-69
2021/09/13 19:21:52;;;;;;;9.88;4.38;;;;;;;14.56;79.15;101843.97;10192026;28;20058;-70
2021/09/13 19:26:49;;;;;;;8.73;4.10;;;;;;;14.50;79.46;101849.59;10191175;28;20069;-70
2021/09/13 19:31:45;;;;;;;8.60;4.30;;;;;;;14.46;79.69;101853.28;10188956;28;20046;-70
2021/09/13 19:36:42;;;;;;;11.70;4.30;;;;;;;14.39;79.80;101852.91;10192805;28;20062;-71
2021/09/13 19:41:41;;;;;;;9.52;4.05;;;;;;;14.36;79.94;101854.34;10188351;28;20048;-73
2021/09/13 19:46:38;;;;;;;11.68;4.63;;;;;;;14.31;80.18;101858.03;10187553;28;20088;-73
2021/09/13 19:51:35;;;;;;;9.48;4.32;;;;;;;14.28;80.14;101863.38;10187804;28;20148;-71
2021/09/13 19:56:34;;;;;;;9.77;4.60;;;;;;;14.25;80.72;101858.50;10187899;28;20133;-68
2021/09/13 20:01:31;;;;;;;9.38;4.88;;;;;;;14.22;81.14;101864.63;10188981;28;20143;-70
2021/09/13 20:06:28;;;;;;;11.45;5.88;;;;;;;14.17;81.09;101859.28;10188756;28;20546;-70
2021/09/13 20:11:25;;;;;;;13.55;5.75;;;;;;;14.14;81.58;101857.97;10189838;28;20500;-70
2021/09/13 20:16:21;;;;;;;14.13;6.10;;;;;;;14.07;81.46;101863.91;10188465;28;20046;-70
2021/09/13 20:21:18;;;;;;;13.73;6.57;;;;;;;14.01;82.09;101858.84;10188176;28;20037;-69
2021/09/13 20:26:15;;;;;;;15.98;6.43;;;;;;;13.96;82.21;101857.03;10186789;28;20041;-71
2021/09/13 20:31:14;;;;;;;16.20;6.05;;;;;;;13.90;82.36;101861.00;10196073;28;20070;-70
2021/09/13 20:36:11;;;;;;;11.77;5.78;;;;;;;13.84;82.69;101854.03;10191573;28;20049;-71
2021/09/13 20:41:08;;;;;;;14.82;6.72;;;;;;;13.78;83.16;101856.09;10189032;28;20092;-71
2021/09/13 20:46:05;;;;;;;11.38;7.10;;;;;;;13.74;83.31;101857.00;10188466;28;20041;-71
2021/09/13 20:51:05;;;;;;;15.40;7.95;;;;;;;13.67;83.43;101855.53;10187497;28;20706;-71
2021/09/13 20:56:02;;;;;;;15.23;7.72;;;;;;;13.66;83.44;101859.38;10179109;28;20072;-70
2021/09/13 21:00:59;;;;;;;15.95;7.63;;;;;;;13.64;83.77;101855.31;10180343;28;20050;-70
2021/09/13 21:05:56;;;;;;;16.23;7.82;;;;;;;13.61;84.09;101856.75;10184854;28;20133;-71
2021/09/13 21:10:53;;;;;;;10.85;6.32;;;;;;;13.57;84.00;101850.25;10182752;28;20049;-70
2021/09/13 21:15:50;;;;;;;14.35;7.03;;;;;;;13.55;84.37;101847.00;10188429;28;20103;-67
2021/09/13 21:20:47;;;;;;;10.63;6.28;;;;;;;13.51;83.95;101846.03;10185207;28;20361;-70
2021/09/13 21:25:43;;;;;;;12.65;6.57;;;;;;;13.49;83.94;101853.75;10184306;28;20494;-71
2021/09/13 21:30:40;;;;;;;12.80;6.10;;;;;;;13.46;83.88;101854.38;10195196;28;20085;-70
2021/09/13 21:35:36;;;;;;;12.93;6.63;;;;;;;13.42;83.98;101856.13;10177673;28;20072;-71
2021/09/13 21:40:33;;;;;;;13.27;6.10;;;;;;;13.38;83.94;101857.84;10188742;28;20072;-69
2021/09/13 21:45:29;;;;;;;11.68;6.78;;;;;;;13.34;84.12;101856.84;10185236;28;20470;-69
2021/09/13 21:50:26;;;;;;;12.88;7.30;;;;;;;13.33;84.44;101855.22;10190326;28;20045;-69
2021/09/13 21:55:22;;;;;;;13.30;6.78;;;;;;;13.26;84.31;101856.41;10185621;28;20069;-69
2021/09/13 22:00:19;;;;;;;13.18;7.75;;;;;;;13.24;84.32;101852.34;10180933;28;20710;-70
2021/09/13 22:05:15;;;;;;;13.48;7.53;;;;;;;13.20;84.39;101854.91;10182706;28;20077;-69
2021/09/13 22:10:12;;;;;;;12.57;6.95;;;;;;;13.17;84.48;101846.47;10183337;28;20084;-69
2021/09/13 22:15:10;;;;;;;16.85;7.28;;;;;;;13.12;84.71;101850.13;10186470;28;20049;-69
2021/09/13 22:20:08;;;;;;;15.13;7.28;;;;;;;13.07;84.99;101841.22;10189019;28;20046;-69
2021/09/13 22:25:05;;;;;;;15.15;8.35;;;;;;;13.05;85.06;101844.25;10184530;28;20169;-70
2021/09/13 22:30:04;;;;;;;15.80;8.90;;;;;;;13.04;85.08;101837.13;10190039;28;20089;-71
2021/09/13 22:35:01;;;;;;;11.75;7.60;;;;;;;13.00;85.09;101836.13;10183369;28;20048;-70
2021/09/13 22:39:58;;;;;;;14.13;7.85;;;;;;;12.96;84.96;101837.88;10186976;28;20053;-69
2021/09/13 22:44:54;;;;;;;17.33;10.05;;;;;;;12.92;84.75;101845.06;10181618;28;20049;-69
2021/09/13 22:49:51;;;;;;;13.48;8.30;;;;;;;12.88;84.83;101844.06;10184629;28;20042;-69